Time,TemperatureF,DewpointF,PressureIn,WindDirection,WindDirectionDegrees,WindSpeedMPH,WindSpeedGustMPH,Humidity,HourlyPrecipIn,Conditions,Clouds,dailyrainin,SolarRadiationWatts/m^2,SoftwareType,DateUTC
2013-12-05 00:02:00,-8.0,-14.0,-100.00,NE,55,2.0,4.0,76,0.00,,,0.00,0.000000,,2013-12-05 07:02:00,
2013-12-05 00:12:00,-8.0,-14.0,-100.00,NE,55,2.0,4.0,76,0.00,,,0.00,0.000000,,2013-12-05 07:12:00,
2013-12-05 00:42:00,-8.0,-14.0,-100.00,ENE,61,1.0,5.0,76,0.00,,,0.00,0.000000,,2013-12-05 07:42:00,
2013-12-05 00:52:00,-8.0,-14.0,-100.00,ENE,61,1.0,5.0,76,0.00,,,0.00,0.000000,,2013-12-05 07:52:00,
2013-12-05 01:02:00,-8.0,-14.0,-100.00,ENE,61,1.0,5.0,76,0.00,,,0.00,0.000000,,2013-12-05 08:02:00,
2013-12-05 01:11:00,-8.0,-14.0,-100.00,ENE,61,1.0,5.0,76,0.00,,,0.00,0.000000,,2013-12-05 08:11:00,
2013-12-05 01:42:00,-8.0,-13.0,-100.00,NE,47,1.0,3.0,79,0.00,,,0.00,0.000000,,2013-12-05 08:42:00,
2013-12-05 01:53:00,-8.0,-13.0,-100.00,NE,47,1.0,3.0,79,0.00,,,0.00,0.000000,,2013-12-05 08:53:00,
2013-12-05 02:02:00,-8.0,-13.0,-100.00,NE,47,1.0,3.0,79,0.00,,,0.00,0.000000,,2013-12-05 09:02:00,
2013-12-05 02:11:00,-8.0,-13.0,-100.00,NE,47,1.0,3.0,79,0.00,,,0.00,0.000000,,2013-12-05 09:11:00,
2013-12-05 02:43:00,-8.0,-13.0,-100.00,NE,34,2.0,2.0,78,0.00,,,0.00,0.000000,,2013-12-05 09:43:00,
2013-12-05 02:54:00,-8.0,-13.0,-100.00,NE,34,2.0,2.0,78,0.00,,,0.00,0.000000,,2013-12-05 09:54:00,
2013-12-05 03:03:00,-8.0,-13.0,-100.00,NE,34,2.0,2.0,78,0.00,,,0.00,0.000000,,2013-12-05 10:03:00,
2013-12-05 03:12:00,-8.0,-13.0,-100.00,NE,34,2.0,2.0,78,0.00,,,0.00,0.000000,,2013-12-05 10:12:00,
2013-12-05 03:43:00,-8.0,-14.0,-100.00,NNW,327,1.0,3.0,76,0.00,,,0.00,0.000000,,2013-12-05 10:43:00,
2013-12-05 03:53:00,-8.0,-14.0,-100.00,NNW,327,1.0,3.0,76,0.00,,,0.00,0.000000,,2013-12-05 10:53:00,
2013-12-05 04:02:00,-8.0,-14.0,-100.00,NNW,327,1.0,3.0,76,0.00,,,0.00,0.000000,,2013-12-05 11:02:00,
2013-12-05 04:12:00,-8.0,-14.0,-100.00,NNW,327,1.0,3.0,76,0.00,,,0.00,0.000000,,2013-12-05 11:12:00,
2013-12-05 04:42:00,-8.0,-13.0,-100.00,NE,50,1.0,3.0,77,0.00,,,0.00,0.000000,,2013-12-05 11:42:00,
2013-12-05 04:53:00,-8.0,-13.0,-100.00,NE,50,1.0,3.0,77,0.00,,,0.00,0.000000,,2013-12-05 11:53:00,
2013-12-05 05:02:00,-8.0,-13.0,-100.00,NE,50,1.0,3.0,77,0.00,,,0.00,0.000000,,2013-12-05 12:02:00,
2013-12-05 05:11:00,-8.0,-13.0,-100.00,NE,50,1.0,3.0,77,0.00,,,0.00,0.000000,,2013-12-05 12:11:00,
2013-12-05 05:42:00,-8.0,-14.0,-100.00,NW,308,0.0,2.0,76,0.00,,,0.00,0.000000,,2013-12-05 12:42:00,
2013-12-05 05:52:00,-8.0,-14.0,-100.00,NW,308,0.0,2.0,76,0.00,,,0.00,0.000000,,2013-12-05 12:52:00,
2013-12-05 06:02:00,-8.0,-14.0,-100.00,NW,308,0.0,2.0,76,0.00,,,0.00,0.000000,,2013-12-05 13:02:00,
2013-12-05 06:11:00,-8.0,-14.0,-100.00,NW,308,0.0,2.0,76,0.00,,,0.00,0.000000,,2013-12-05 13:11:00,
2013-12-05 06:42:00,-8.0,-14.0,-100.00,NW,309,1.0,2.0,75,0.00,,,0.00,0.000000,,2013-12-05 13:42:00,
2013-12-05 06:52:00,-8.0,-14.0,-100.00,NW,309,1.0,2.0,75,0.00,,,0.00,0.000000,,2013-12-05 13:52:00,
2013-12-05 07:02:00,-8.0,-14.0,-100.00,NW,309,1.0,2.0,75,0.00,,,0.00,0.000000,,2013-12-05 14:02:00,
2013-12-05 07:11:00,-8.0,-14.0,-100.00,NW,309,1.0,2.0,75,0.00,,,0.00,0.000000,,2013-12-05 14:11:00,
2013-12-05 07:42:00,-8.0,-14.0,-100.00,WSW,252,1.0,2.0,76,0.00,,,0.00,0.000000,,2013-12-05 14:42:00,
2013-12-05 07:52:00,-8.0,-14.0,-100.00,WSW,252,1.0,2.0,76,0.00,,,0.00,0.000000,,2013-12-05 14:52:00,
2013-12-05 08:02:00,-8.0,-14.0,-100.00,WSW,252,1.0,2.0,76,0.00,,,0.00,0.000000,,2013-12-05 15:02:00,
2013-12-05 08:11:00,-8.0,-14.0,-100.00,WSW,252,1.0,2.0,76,0.00,,,0.00,0.000000,,2013-12-05 15:11:00,
2013-12-05 08:43:00,-8.0,-13.0,-100.00,East,83,1.0,2.0,77,0.00,,,-99.99,0.000000,,2013-12-05 15:43:00,
2013-12-05 08:54:00,-8.0,-13.0,-100.00,East,83,1.0,2.0,77,0.00,,,-99.99,0.000000,,2013-12-05 15:54:00,
2013-12-05 09:04:00,-8.0,-13.0,-100.00,East,83,1.0,2.0,77,0.00,,,-99.99,0.000000,,2013-12-05 16:04:00,
2013-12-05 09:13:00,-8.0,-13.0,-100.00,East,83,1.0,2.0,77,0.00,,,-99.99,0.000000,,2013-12-05 16:13:00,
2013-12-05 09:43:00,-8.0,-14.0,-100.00,NE,37,1.0,1.0,76,0.00,,,-99.99,0.000000,,2013-12-05 16:43:00,
2013-12-05 09:53:00,-8.0,-14.0,-100.00,NE,37,1.0,1.0,76,0.00,,,-99.99,0.000000,,2013-12-05 16:53:00,
2013-12-05 10:02:00,-8.0,-14.0,-100.00,NE,37,1.0,1.0,76,0.00,,,-99.99,0.000000,,2013-12-05 17:02:00,
2013-12-05 10:12:00,-8.0,-14.0,-100.00,NE,37,1.0,1.0,76,0.00,,,-99.99,0.000000,,2013-12-05 17:12:00,
2013-12-05 10:42:00,-3.0,-9.0,-100.00,SE,138,1.0,3.0,75,0.00,,,0.00,9.000000,,2013-12-05 17:42:00,
2013-12-05 10:52:00,-3.0,-9.0,-100.00,SE,138,1.0,3.0,75,0.00,,,0.00,9.000000,,2013-12-05 17:52:00,
2013-12-05 11:02:00,-3.0,-9.0,-100.00,SE,138,1.0,3.0,75,0.00,,,0.00,9.000000,,2013-12-05 18:02:00,
2013-12-05 11:12:00,-3.0,-9.0,-100.00,SE,138,1.0,3.0,75,0.00,,,0.00,9.000000,,2013-12-05 18:12:00,
2013-12-05 11:42:00,4.0,-5.0,-100.00,SSE,162,3.0,4.0,66,0.00,,,0.00,62.000000,,2013-12-05 18:42:00,
2013-12-05 11:52:00,4.0,-5.0,-100.00,SSE,162,3.0,4.0,66,0.00,,,0.00,62.000000,,2013-12-05 18:52:00,
2013-12-05 12:02:00,4.0,-5.0,-100.00,SSE,162,3.0,4.0,66,0.00,,,0.00,62.000000,,2013-12-05 19:02:00,
2013-12-05 12:11:00,4.0,-5.0,-100.00,SSE,162,3.0,4.0,66,0.00,,,0.00,62.000000,,2013-12-05 19:11:00,
2013-12-05 12:42:00,14.0,-1.0,-100.00,SSW,203,1.0,4.0,50,0.00,,,0.00,77.000000,,2013-12-05 19:42:00,
2013-12-05 13:42:00,11.0,-1.0,-100.00,SSW,196,2.0,4.0,57,-99.99,,,0.00,82.000000,,2013-12-05 20:42:00,
2013-12-05 13:52:00,11.0,-1.0,-100.00,SSW,196,2.0,4.0,57,-99.99,,,0.00,82.000000,,2013-12-05 20:52:00,
2013-12-05 14:02:00,11.0,-1.0,-100.00,SSW,196,2.0,4.0,57,-99.99,,,0.00,82.000000,,2013-12-05 21:02:00,
2013-12-05 14:12:00,11.0,-1.0,-100.00,SSW,196,2.0,4.0,57,-99.99,,,0.00,82.000000,,2013-12-05 21:12:00,
2013-12-05 17:42:00,0.0,-7.0,-100.00,WNW,282,1.0,4.0,70,-99.99,,,0.00,21.000000,,2013-12-06 00:42:00,
2013-12-05 17:52:00,0.0,-7.0,-100.00,WNW,282,1.0,4.0,70,-99.99,,,0.00,21.000000,,2013-12-06 00:52:00,
2013-12-05 18:01:00,0.0,-7.0,-100.00,WNW,282,1.0,4.0,70,-99.99,,,0.00,21.000000,,2013-12-06 01:01:00,
2013-12-05 18:11:00,0.0,-7.0,-100.00,WNW,282,1.0,4.0,70,-99.99,,,0.00,21.000000,,2013-12-06 01:11:00,
2013-12-05 18:42:00,-4.0,-9.0,-100.00,NE,45,2.0,3.0,78,0.00,,,0.00,2.000000,,2013-12-06 01:42:00,
2013-12-05 18:52:00,-4.0,-9.0,-100.00,NE,45,2.0,3.0,78,0.00,,,0.00,2.000000,,2013-12-06 01:52:00,
2013-12-05 19:01:00,-4.0,-9.0,-100.00,NE,45,2.0,3.0,78,0.00,,,0.00,2.000000,,2013-12-06 02:01:00,
2013-12-05 19:11:00,-4.0,-9.0,-100.00,NE,45,2.0,3.0,78,0.00,,,0.00,2.000000,,2013-12-06 02:11:00,
2013-12-05 19:42:00,-5.0,-11.0,-100.00,NE,48,4.0,7.0,73,0.00,,,0.00,0.000000,,2013-12-06 02:42:00,
2013-12-05 19:52:00,-5.0,-11.0,-100.00,NE,48,4.0,7.0,73,0.00,,,0.00,0.000000,,2013-12-06 02:52:00,
2013-12-05 20:02:00,-5.0,-11.0,-100.00,NE,48,4.0,7.0,73,0.00,,,0.00,0.000000,,2013-12-06 03:02:00,
2013-12-05 20:11:00,-5.0,-11.0,-100.00,NE,48,4.0,7.0,73,0.00,,,0.00,0.000000,,2013-12-06 03:11:00,
2013-12-05 20:43:00,-5.0,-11.0,-100.00,ENE,60,3.0,6.0,73,0.00,,,0.00,0.000000,,2013-12-06 03:43:00,
2013-12-05 20:53:00,-5.0,-11.0,-100.00,ENE,60,3.0,6.0,73,0.00,,,0.00,0.000000,,2013-12-06 03:53:00,
2013-12-05 21:03:00,-5.0,-11.0,-100.00,ENE,60,3.0,6.0,73,0.00,,,0.00,0.000000,,2013-12-06 04:03:00,
2013-12-05 21:12:00,-5.0,-11.0,-100.00,ENE,60,3.0,6.0,73,0.00,,,0.00,0.000000,,2013-12-06 04:12:00,
2013-12-05 21:43:00,-6.0,-12.0,-100.00,ENE,59,2.0,7.0,73,0.00,,,0.00,0.000000,,2013-12-06 04:43:00,
2013-12-05 21:53:00,-6.0,-12.0,-100.00,ENE,59,2.0,7.0,73,0.00,,,0.00,0.000000,,2013-12-06 04:53:00,
2013-12-05 22:02:00,-6.0,-12.0,-100.00,ENE,59,2.0,7.0,73,0.00,,,0.00,0.000000,,2013-12-06 05:02:00,
2013-12-05 22:12:00,-6.0,-12.0,-100.00,ENE,59,2.0,7.0,73,0.00,,,0.00,0.000000,,2013-12-06 05:12:00,
2013-12-05 22:43:00,-7.0,-13.0,-100.00,ENE,58,3.0,7.0,74,0.00,,,0.00,0.000000,,2013-12-06 05:43:00,
2013-12-05 22:53:00,-7.0,-13.0,-100.00,ENE,58,3.0,7.0,74,0.00,,,0.00,0.000000,,2013-12-06 05:53:00,
2013-12-05 23:02:00,-7.0,-13.0,-100.00,ENE,58,3.0,7.0,74,0.00,,,0.00,0.000000,,2013-12-06 06:02:00,
2013-12-05 23:12:00,-7.0,-13.0,-100.00,ENE,58,3.0,7.0,74,0.00,,,0.00,0.000000,,2013-12-06 06:12:00,
2013-12-05 23:42:00,-7.0,-13.0,-100.00,ENE,57,4.0,8.0,73,0.00,,,0.00,0.000000,,2013-12-06 06:42:00,
2013-12-05 23:52:00,-7.0,-13.0,-100.00,ENE,57,4.0,8.0,73,0.00,,,0.00,0.000000,,2013-12-06 06:52:00,